Details for Transavia (Netherlands) at EHAM




Go Back


Latest METAR
Local Time

EHAM 240755Z 05009KT 020V080 CAVOK 19/10 Q1020 NOSIG

24/05/2018, 10:07:48

Description
Results
Transavia (Netherlands) Logo
Number of Pilots based at EHAM
2 Pilots Based here
Number of Transavia (Netherlands) Flights Departed from EHAM
13 Flights Departed
Number of Transavia (Netherlands) Flights Arrived at EHAM
11 Flights Arrived
Number of Transavia (Netherlands) Schedules Departing from EHAM
214 Schedules
Number of Transavia (Netherlands) Schedules Arriving at EHAM
216 Schedules
Number of Transavia (Netherlands) Schedules Departing from EHAM availible today
49 Schedules Today
Number of Transavia (Netherlands) Schedules Arriving at EHAM availible today
49 Schedules Today
Average Landing Rate at EHAM
-211 fpm
Transavia (Netherlands) Average Landing Rate at EHAM
-215 fpm
Total Fuel Purchased at EHAM by Transavia (Netherlands)
102,484.68 kgs / 225,937.73 lbs

Pilots Based at EHAM


Pilot ID
Pilot Name
Pilot Rank
No. of Flights
No. of Flying Hours
Youri Rutten
83
197.1
James Hatcher
126
521.08
Content